sensor_id;sensor_type;location;lat;lon;timestamp;pressure;altitude;pressure_sealevel;temperature;humidity
41690;BME280;27372;42.658;23.256;2023-05-23T00:01:22;93701.94;;;10.88;100.00
41690;BME280;27372;42.658;23.256;2023-05-23T00:07:28;93688.91;;;10.77;100.00
41690;BME280;27372;42.658;23.256;2023-05-23T00:09:54;93685.25;;;10.78;100.00
41690;BME280;27372;42.658;23.256;2023-05-23T00:12:25;93669.09;;;10.69;100.00
41690;BME280;27372;42.658;23.256;2023-05-23T00:14:51;93669.88;;;10.69;100.00
41690;BME280;27372;42.658;23.256;2023-05-23T00:17:18;93666.47;;;10.69;100.00
41690;BME280;27372;42.658;23.256;2023-05-23T00:19:43;93671.34;;;10.99;100.00
41690;BME280;27372;42.658;23.256;2023-05-23T00:22:21;93671.16;;;11.23;100.00
41690;BME280;27372;42.658;23.256;2023-05-23T00:24:46;93672.94;;;11.40;100.00
41690;BME280;27372;42.658;23.256;2023-05-23T00:27:20;93669.66;;;11.49;100.00
41690;BME280;27372;42.658;23.256;2023-05-23T00:29:46;93669.94;;;11.09;100.00
41690;BME280;27372;42.658;23.256;2023-05-23T00:32:11;93676.00;;;10.75;100.00
41690;BME280;27372;42.658;23.256;2023-05-23T00:37:16;93671.78;;;10.28;100.00
41690;BME280;27372;42.658;23.256;2023-05-23T00:39:45;93675.88;;;10.36;100.00
41690;BME280;27372;42.658;23.256;2023-05-23T00:42:23;93666.28;;;10.41;100.00
41690;BME280;27372;42.658;23.256;2023-05-23T00:45:00;93668.75;;;10.48;100.00
41690;BME280;27372;42.658;23.256;2023-05-23T00:47:25;93666.22;;;10.70;100.00
41690;BME280;27372;42.658;23.256;2023-05-23T00:50:01;93672.44;;;10.64;100.00
41690;BME280;27372;42.658;23.256;2023-05-23T00:52:26;93672.13;;;10.61;100.00
41690;BME280;27372;42.658;23.256;2023-05-23T00:54:51;93674.97;;;10.59;100.00
41690;BME280;27372;42.658;23.256;2023-05-23T00:57:23;93668.28;;;10.68;100.00
41690;BME280;27372;42.658;23.256;2023-05-23T00:59:48;93665.75;;;10.74;100.00
41690;BME280;27372;42.658;23.256;2023-05-23T01:02:23;93678.94;;;10.96;100.00
41690;BME280;27372;42.658;23.256;2023-05-23T01:04:49;93669.75;;;11.15;100.00
41690;BME280;27372;42.658;23.256;2023-05-23T01:07:24;93668.72;;;10.99;100.00
41690;BME280;27372;42.658;23.256;2023-05-23T01:09:52;93670.31;;;11.17;100.00
41690;BME280;27372;42.658;23.256;2023-05-23T01:12:37;93681.69;;;11.23;100.00
41690;BME280;27372;42.658;23.256;2023-05-23T01:15:14;93669.59;;;11.05;100.00
41690;BME280;27372;42.658;23.256;2023-05-23T01:18:20;93676.28;;;11.13;100.00
41690;BME280;27372;42.658;23.256;2023-05-23T01:20:54;93674.38;;;11.08;100.00
41690;BME280;27372;42.658;23.256;2023-05-23T01:29:01;93671.97;;;10.67;100.00
41690;BME280;27372;42.658;23.256;2023-05-23T01:31:30;93678.63;;;10.92;100.00
41690;BME280;27372;42.658;23.256;2023-05-23T01:33:57;93682.63;;;10.78;100.00
41690;BME280;27372;42.658;23.256;2023-05-23T01:36:26;93668.28;;;10.51;100.00
41690;BME280;27372;42.658;23.256;2023-05-23T01:38:52;93663.41;;;10.60;100.00
41690;BME280;27372;42.658;23.256;2023-05-23T01:41:17;93666.59;;;10.62;100.00
41690;BME280;27372;42.658;23.256;2023-05-23T01:43:45;93664.44;;;10.59;100.00
41690;BME280;27372;42.658;23.256;2023-05-23T01:46:15;93661.81;;;10.59;100.00
41690;BME280;27372;42.658;23.256;2023-05-23T01:48:45;93667.66;;;10.78;100.00
41690;BME280;27372;42.658;23.256;2023-05-23T01:51:15;93664.53;;;10.98;100.00
41690;BME280;27372;42.658;23.256;2023-05-23T01:53:40;93672.59;;;10.92;100.00
41690;BME280;27372;42.658;23.256;2023-05-23T01:56:13;93665.59;;;10.80;100.00
41690;BME280;27372;42.658;23.256;2023-05-23T01:59:02;93658.97;;;10.78;100.00
41690;BME280;27372;42.658;23.256;2023-05-23T02:01:28;93653.56;;;10.67;100.00
41690;BME280;27372;42.658;23.256;2023-05-23T02:04:06;93655.94;;;10.69;100.00
41690;BME280;27372;42.658;23.256;2023-05-23T02:06:37;93660.94;;;10.87;100.00
41690;BME280;27372;42.658;23.256;2023-05-23T02:09:07;93660.47;;;10.91;100.00
41690;BME280;27372;42.658;23.256;2023-05-23T02:11:36;93645.56;;;11.13;100.00
41690;BME280;27372;42.658;23.256;2023-05-23T02:14:05;93653.88;;;11.27;100.00
41690;BME280;27372;42.658;23.256;2023-05-23T02:16:31;93657.44;;;11.38;100.00
41690;BME280;27372;42.658;23.256;2023-05-23T02:19:09;93651.56;;;11.31;100.00
41690;BME280;27372;42.658;23.256;2023-05-23T02:21:35;93659.31;;;11.43;100.00
41690;BME280;27372;42.658;23.256;2023-05-23T02:24:06;93664.00;;;11.18;100.00
41690;BME280;27372;42.658;23.256;2023-05-23T02:26:38;93666.88;;;11.17;100.00
41690;BME280;27372;42.658;23.256;2023-05-23T02:29:04;93656.28;;;11.12;100.00
41690;BME280;27372;42.658;23.256;2023-05-23T02:31:33;93657.91;;;10.79;100.00
41690;BME280;27372;42.658;23.256;2023-05-23T02:33:58;93647.69;;;10.31;100.00
41690;BME280;27372;42.658;23.256;2023-05-23T02:36:24;93650.25;;;10.26;100.00
41690;BME280;27372;42.658;23.256;2023-05-23T02:38:49;93638.22;;;10.13;100.00
41690;BME280;27372;42.658;23.256;2023-05-23T02:41:53;93651.94;;;10.32;100.00
41690;BME280;27372;42.658;23.256;2023-05-23T02:44:18;93633.84;;;10.48;100.00
41690;BME280;27372;42.658;23.256;2023-05-23T02:46:44;93639.53;;;10.79;100.00
41690;BME280;27372;42.658;23.256;2023-05-23T02:49:10;93635.25;;;10.90;100.00
41690;BME280;27372;42.658;23.256;2023-05-23T02:51:44;93634.50;;;10.94;100.00
41690;BME280;27372;42.658;23.256;2023-05-23T02:54:10;93656.25;;;11.07;100.00
41690;BME280;27372;42.658;23.256;2023-05-23T02:56:36;93653.53;;;10.84;100.00
41690;BME280;27372;42.658;23.256;2023-05-23T02:59:05;93649.53;;;10.14;100.00
41690;BME280;27372;42.658;23.256;2023-05-23T03:01:31;93643.16;;;9.81;100.00
41690;BME280;27372;42.658;23.256;2023-05-23T03:04:01;93656.59;;;10.30;100.00
41690;BME280;27372;42.658;23.256;2023-05-23T03:06:27;93651.94;;;10.32;100.00
41690;BME280;27372;42.658;23.256;2023-05-23T03:08:52;93664.63;;;10.69;100.00
41690;BME280;27372;42.658;23.256;2023-05-23T03:11:21;93664.59;;;10.86;100.00
41690;BME280;27372;42.658;23.256;2023-05-23T03:13:46;93662.69;;;10.99;100.00
41690;BME280;27372;42.658;23.256;2023-05-23T03:16:12;93659.03;;;11.00;100.00
41690;BME280;27372;42.658;23.256;2023-05-23T03:18:37;93644.63;;;10.85;100.00
41690;BME280;27372;42.658;23.256;2023-05-23T03:21:06;93668.09;;;10.92;100.00
41690;BME280;27372;42.658;23.256;2023-05-23T03:23:31;93643.28;;;10.83;100.00
41690;BME280;27372;42.658;23.256;2023-05-23T03:26:06;93647.84;;;11.10;100.00
41690;BME280;27372;42.658;23.256;2023-05-23T03:28:37;93652.72;;;11.18;100.00
41690;BME280;27372;42.658;23.256;2023-05-23T03:31:02;93654.56;;;11.00;100.00
41690;BME280;27372;42.658;23.256;2023-05-23T03:33:30;93649.72;;;11.31;100.00
41690;BME280;27372;42.658;23.256;2023-05-23T03:36:06;93662.50;;;11.45;100.00
41690;BME280;27372;42.658;23.256;2023-05-23T03:38:33;93664.84;;;11.63;100.00
41690;BME280;27372;42.658;23.256;2023-05-23T03:41:06;93659.88;;;11.67;100.00
41690;BME280;27372;42.658;23.256;2023-05-23T03:43:36;93684.34;;;11.90;100.00
41690;BME280;27372;42.658;23.256;2023-05-23T03:46:02;93678.59;;;11.71;100.00
41690;BME280;27372;42.658;23.256;2023-05-23T03:48:30;93666.91;;;11.61;100.00
41690;BME280;27372;42.658;23.256;2023-05-23T03:50:59;93663.63;;;11.49;100.00
41690;BME280;27372;42.658;23.256;2023-05-23T03:53:24;93674.31;;;11.42;100.00
41690;BME280;27372;42.658;23.256;2023-05-23T03:56:05;93670.66;;;11.43;100.00
41690;BME280;27372;42.658;23.256;2023-05-23T03:58:33;93679.59;;;11.64;100.00
41690;BME280;27372;42.658;23.256;2023-05-23T04:04:12;93667.81;;;11.94;100.00
41690;BME280;27372;42.658;23.256;2023-05-23T04:06:43;93684.09;;;12.14;100.00
41690;BME280;27372;42.658;23.256;2023-05-23T04:09:15;93678.66;;;12.20;100.00
41690;BME280;27372;42.658;23.256;2023-05-23T04:11:43;93676.53;;;12.22;100.00
41690;BME280;27372;42.658;23.256;2023-05-23T04:14:11;93673.22;;;12.32;100.00
41690;BME280;27372;42.658;23.256;2023-05-23T04:16:37;93679.38;;;12.43;99.88
41690;BME280;27372;42.658;23.256;2023-05-23T04:19:08;93673.50;;;12.08;100.00
41690;BME280;27372;42.658;23.256;2023-05-23T04:21:36;93694.09;;;12.39;100.00
41690;BME280;27372;42.658;23.256;2023-05-23T04:27:29;93669.47;;;12.01;100.00
41690;BME280;27372;42.658;23.256;2023-05-23T04:30:33;93669.25;;;11.58;100.00
41690;BME280;27372;42.658;23.256;2023-05-23T04:41:36;93678.75;;;11.19;100.00
41690;BME280;27372;42.658;23.256;2023-05-23T04:54:28;93680.13;;;11.67;100.00
41690;BME280;27372;42.658;23.256;2023-05-23T04:56:55;93690.94;;;11.92;100.00
41690;BME280;27372;42.658;23.256;2023-05-23T05:02:45;93687.63;;;12.24;100.00
41690;BME280;27372;42.658;23.256;2023-05-23T05:05:13;93697.66;;;12.55;100.00
41690;BME280;27372;42.658;23.256;2023-05-23T05:07:48;93694.78;;;12.56;100.00
41690;BME280;27372;42.658;23.256;2023-05-23T05:10:22;93691.75;;;12.15;100.00
41690;BME280;27372;42.658;23.256;2023-05-23T05:13:08;93697.69;;;12.60;100.00
41690;BME280;27372;42.658;23.256;2023-05-23T05:15:34;93709.31;;;12.92;100.00
41690;BME280;27372;42.658;23.256;2023-05-23T05:17:59;93709.38;;;13.02;100.00
41690;BME280;27372;42.658;23.256;2023-05-23T05:20:25;93711.31;;;13.17;100.00
41690;BME280;27372;42.658;23.256;2023-05-23T05:22:57;93703.22;;;13.29;100.00
41690;BME280;27372;42.658;23.256;2023-05-23T05:28:12;93696.63;;;12.94;100.00
41690;BME280;27372;42.658;23.256;2023-05-23T05:30:38;93692.41;;;12.93;100.00
41690;BME280;27372;42.658;23.256;2023-05-23T05:33:06;93700.47;;;13.13;100.00
41690;BME280;27372;42.658;23.256;2023-05-23T05:35:52;93695.50;;;13.65;100.00
41690;BME280;27372;42.658;23.256;2023-05-23T05:38:20;93709.56;;;13.76;100.00
41690;BME280;27372;42.658;23.256;2023-05-23T05:40:45;93716.88;;;14.37;100.00
41690;BME280;27372;42.658;23.256;2023-05-23T05:43:11;93714.59;;;14.82;100.00
41690;BME280;27372;42.658;23.256;2023-05-23T05:45:36;93715.94;;;15.16;100.00
41690;BME280;27372;42.658;23.256;2023-05-23T05:48:05;93722.00;;;15.16;100.00
41690;BME280;27372;42.658;23.256;2023-05-23T05:50:42;93720.41;;;15.31;99.07
41690;BME280;27372;42.658;23.256;2023-05-23T05:53:10;93729.91;;;15.42;98.62
41690;BME280;27372;42.658;23.256;2023-05-23T05:56:05;93726.66;;;15.87;99.97
41690;BME280;27372;42.658;23.256;2023-05-23T05:58:33;93724.88;;;15.41;95.38
41690;BME280;27372;42.658;23.256;2023-05-23T06:01:01;93727.28;;;15.21;99.73
41690;BME280;27372;42.658;23.256;2023-05-23T06:03:45;93728.09;;;15.06;97.62
41690;BME280;27372;42.658;23.256;2023-05-23T06:06:10;93720.41;;;15.15;94.60
41690;BME280;27372;42.658;23.256;2023-05-23T06:08:41;93723.31;;;15.45;92.60
41690;BME280;27372;42.658;23.256;2023-05-23T06:11:13;93715.34;;;15.55;91.90
41690;BME280;27372;42.658;23.256;2023-05-23T06:17:02;93727.00;;;15.54;91.86
41690;BME280;27372;42.658;23.256;2023-05-23T06:19:27;93710.34;;;15.33;93.32
41690;BME280;27372;42.658;23.256;2023-05-23T06:22:02;93728.00;;;15.84;91.96
41690;BME280;27372;42.658;23.256;2023-05-23T06:24:46;93727.41;;;15.97;91.38
41690;BME280;27372;42.658;23.256;2023-05-23T06:27:42;93727.78;;;15.44;92.00
41690;BME280;27372;42.658;23.256;2023-05-23T06:30:27;93734.69;;;15.35;94.51
41690;BME280;27372;42.658;23.256;2023-05-23T06:33:00;93720.66;;;15.34;94.59
41690;BME280;27372;42.658;23.256;2023-05-23T06:35:25;93727.97;;;15.89;92.94
41690;BME280;27372;42.658;23.256;2023-05-23T06:37:51;93726.00;;;16.21;92.13
41690;BME280;27372;42.658;23.256;2023-05-23T06:40:16;93732.22;;;16.51;90.82
41690;BME280;27372;42.658;23.256;2023-05-23T06:42:42;93726.16;;;16.40;89.26
41690;BME280;27372;42.658;23.256;2023-05-23T06:45:08;93723.59;;;16.24;90.16
41690;BME280;27372;42.658;23.256;2023-05-23T06:47:36;93718.88;;;16.61;88.83
41690;BME280;27372;42.658;23.256;2023-05-23T06:50:02;93726.19;;;16.29;90.23
41690;BME280;27372;42.658;23.256;2023-05-23T06:52:28;93717.53;;;16.19;88.92
41690;BME280;27372;42.658;23.256;2023-05-23T06:54:53;93716.94;;;16.27;90.37
41690;BME280;27372;42.658;23.256;2023-05-23T06:57:18;93716.81;;;16.53;89.01
41690;BME280;27372;42.658;23.256;2023-05-23T06:59:49;93704.13;;;16.44;89.14
41690;BME280;27372;42.658;23.256;2023-05-23T07:02:15;93707.94;;;16.73;86.99
41690;BME280;27372;42.658;23.256;2023-05-23T07:04:40;93710.84;;;17.11;84.47
41690;BME280;27372;42.658;23.256;2023-05-23T07:07:05;93712.94;;;17.14;87.18
41690;BME280;27372;42.658;23.256;2023-05-23T07:09:31;93721.78;;;16.59;89.35
41690;BME280;27372;42.658;23.256;2023-05-23T07:11:56;93698.22;;;16.63;89.17
41690;BME280;27372;42.658;23.256;2023-05-23T07:14:24;93699.47;;;16.71;87.39
41690;BME280;27372;42.658;23.256;2023-05-23T07:16:50;93709.03;;;16.67;85.50
41690;BME280;27372;42.658;23.256;2023-05-23T07:19:15;93691.34;;;16.91;85.54
41690;BME280;27372;42.658;23.256;2023-05-23T07:21:41;93701.34;;;17.05;84.17
41690;BME280;27372;42.658;23.256;2023-05-23T07:24:06;93694.59;;;17.18;84.55
41690;BME280;27372;42.658;23.256;2023-05-23T07:26:31;93688.47;;;17.52;82.40
41690;BME280;27372;42.658;23.256;2023-05-23T07:28:58;93690.78;;;17.59;82.86
41690;BME280;27372;42.658;23.256;2023-05-23T07:31:23;93686.31;;;17.54;83.41
41690;BME280;27372;42.658;23.256;2023-05-23T07:33:49;93681.91;;;17.68;82.93
41690;BME280;27372;42.658;23.256;2023-05-23T07:36:14;93693.22;;;17.79;81.57
41690;BME280;27372;42.658;23.256;2023-05-23T07:38:40;93697.81;;;17.98;79.83
41690;BME280;27372;42.658;23.256;2023-05-23T07:41:06;93691.50;;;18.32;77.75
41690;BME280;27372;42.658;23.256;2023-05-23T07:43:31;93690.66;;;18.56;77.44
41690;BME280;27372;42.658;23.256;2023-05-23T07:45:56;93697.31;;;18.72;78.63
41690;BME280;27372;42.658;23.256;2023-05-23T07:48:22;93687.00;;;18.71;77.62
41690;BME280;27372;42.658;23.256;2023-05-23T07:50:47;93687.13;;;18.99;76.13
41690;BME280;27372;42.658;23.256;2023-05-23T07:53:12;93681.94;;;19.07;76.99
41690;BME280;27372;42.658;23.256;2023-05-23T07:55:38;93679.31;;;19.35;76.60
41690;BME280;27372;42.658;23.256;2023-05-23T07:58:03;93692.34;;;19.37;75.41
41690;BME280;27372;42.658;23.256;2023-05-23T08:00:32;93682.31;;;19.62;73.20
41690;BME280;27372;42.658;23.256;2023-05-23T08:02:57;93690.44;;;19.98;72.76
41690;BME280;27372;42.658;23.256;2023-05-23T08:05:22;93682.16;;;19.86;72.75
41690;BME280;27372;42.658;23.256;2023-05-23T08:07:48;93673.75;;;20.07;74.23
41690;BME280;27372;42.658;23.256;2023-05-23T08:10:13;93671.16;;;20.29;71.55
41690;BME280;27372;42.658;23.256;2023-05-23T08:12:45;93673.63;;;20.26;68.66
41690;BME280;27372;42.658;23.256;2023-05-23T08:15:14;93665.31;;;20.27;71.37
41690;BME280;27372;42.658;23.256;2023-05-23T08:17:58;93679.25;;;20.61;68.11
41690;BME280;27372;42.658;23.256;2023-05-23T08:20:45;93667.69;;;20.79;68.04
41690;BME280;27372;42.658;23.256;2023-05-23T08:23:19;93674.31;;;20.68;69.50
41690;BME280;27372;42.658;23.256;2023-05-23T08:25:45;93670.03;;;20.81;68.72
41690;BME280;27372;42.658;23.256;2023-05-23T08:28:10;93672.41;;;21.37;67.62
41690;BME280;27372;42.658;23.256;2023-05-23T08:30:36;93673.72;;;21.17;69.61
41690;BME280;27372;42.658;23.256;2023-05-23T08:33:06;93664.28;;;21.10;67.65
41690;BME280;27372;42.658;23.256;2023-05-23T08:35:32;93674.75;;;21.30;67.51
41690;BME280;27372;42.658;23.256;2023-05-23T08:38:00;93679.22;;;21.43;67.57
41690;BME280;27372;42.658;23.256;2023-05-23T08:40:26;93664.91;;;21.70;66.78
41690;BME280;27372;42.658;23.256;2023-05-23T08:42:53;93662.41;;;21.74;65.70
41690;BME280;27372;42.658;23.256;2023-05-23T08:45:19;93660.59;;;21.92;63.29
41690;BME280;27372;42.658;23.256;2023-05-23T08:47:45;93675.72;;;22.14;63.88
41690;BME280;27372;42.658;23.256;2023-05-23T08:50:27;93670.88;;;22.34;63.63
41690;BME280;27372;42.658;23.256;2023-05-23T08:52:54;93662.75;;;22.57;60.83
41690;BME280;27372;42.658;23.256;2023-05-23T08:55:42;93663.84;;;22.64;59.22
41690;BME280;27372;42.658;23.256;2023-05-23T08:58:07;93654.41;;;22.93;56.74
41690;BME280;27372;42.658;23.256;2023-05-23T09:00:34;93650.44;;;23.00;57.03
41690;BME280;27372;42.658;23.256;2023-05-23T09:02:59;93662.09;;;23.21;55.21
41690;BME280;27372;42.658;23.256;2023-05-23T09:05:25;93654.00;;;23.39;52.84
41690;BME280;27372;42.658;23.256;2023-05-23T09:07:54;93665.75;;;23.64;52.61
41690;BME280;27372;42.658;23.256;2023-05-23T09:13:16;93656.47;;;23.53;54.30
41690;BME280;27372;42.658;23.256;2023-05-23T09:16:15;93659.50;;;23.51;52.75
41690;BME280;27372;42.658;23.256;2023-05-23T09:18:44;93657.78;;;23.38;45.33
41690;BME280;27372;42.658;23.256;2023-05-23T09:21:11;93646.28;;;23.76;49.27
41690;BME280;27372;42.658;23.256;2023-05-23T09:23:40;93638.31;;;23.67;49.60
41690;BME280;27372;42.658;23.256;2023-05-23T09:26:14;93632.09;;;23.84;45.10
41690;BME280;27372;42.658;23.256;2023-05-23T09:28:46;93637.94;;;23.78;46.08
41690;BME280;27372;42.658;23.256;2023-05-23T09:31:31;93636.94;;;22.78;43.63
41690;BME280;27372;42.658;23.256;2023-05-23T09:33:59;93644.66;;;23.54;41.66
41690;BME280;27372;42.658;23.256;2023-05-23T09:36:34;93638.16;;;24.02;42.58
41690;BME280;27372;42.658;23.256;2023-05-23T09:42:21;93620.81;;;24.51;41.30
41690;BME280;27372;42.658;23.256;2023-05-23T09:44:47;93628.31;;;23.47;40.42
41690;BME280;27372;42.658;23.256;2023-05-23T09:47:36;93623.09;;;23.41;40.55
41690;BME280;27372;42.658;23.256;2023-05-23T09:50:01;93634.06;;;23.66;40.83
41690;BME280;27372;42.658;23.256;2023-05-23T09:52:35;93614.00;;;24.54;39.93
41690;BME280;27372;42.658;23.256;2023-05-23T09:55:02;93600.78;;;24.70;39.17
41690;BME280;27372;42.658;23.256;2023-05-23T09:57:28;93618.94;;;24.00;39.42
41690;BME280;27372;42.658;23.256;2023-05-23T10:00:06;93613.44;;;23.58;39.80
41690;BME280;27372;42.658;23.256;2023-05-23T10:06:07;93615.03;;;24.40;37.98
41690;BME280;27372;42.658;23.256;2023-05-23T10:08:38;93624.38;;;24.98;36.58
41690;BME280;27372;42.658;23.256;2023-05-23T10:13:48;93623.63;;;25.80;36.76
41690;BME280;27372;42.658;23.256;2023-05-23T10:19:47;93623.50;;;25.52;34.84
41690;BME280;27372;42.658;23.256;2023-05-23T10:22:11;93605.91;;;24.96;36.84
41690;BME280;27372;42.658;23.256;2023-05-23T10:24:43;93612.06;;;24.12;34.29
41690;BME280;27372;42.658;23.256;2023-05-23T10:27:18;93607.19;;;24.77;34.81
41690;BME280;27372;42.658;23.256;2023-05-23T10:30:08;93601.69;;;25.53;33.88
41690;BME280;27372;42.658;23.256;2023-05-23T10:51:58;93590.16;;;26.84;31.58
41690;BME280;27372;42.658;23.256;2023-05-23T10:54:49;93597.38;;;27.40;31.43
41690;BME280;27372;42.658;23.256;2023-05-23T10:57:36;93577.75;;;26.39;33.68
41690;BME280;27372;42.658;23.256;2023-05-23T11:00:15;93578.22;;;26.57;31.90
41690;BME280;27372;42.658;23.256;2023-05-23T11:02:59;93580.81;;;25.87;33.31
41690;BME280;27372;42.658;23.256;2023-05-23T11:05:46;93581.03;;;26.19;32.37
41690;BME280;27372;42.658;23.256;2023-05-23T11:08:19;93579.41;;;26.72;31.85
41690;BME280;27372;42.658;23.256;2023-05-23T11:11:06;93589.19;;;27.21;30.60
41690;BME280;27372;42.658;23.256;2023-05-23T11:16:49;93576.25;;;27.74;30.18
41690;BME280;27372;42.658;23.256;2023-05-23T11:22:39;93574.53;;;28.73;28.44
41690;BME280;27372;42.658;23.256;2023-05-23T11:31:52;93568.91;;;26.95;30.42
41690;BME280;27372;42.658;23.256;2023-05-23T11:48:17;93546.16;;;28.24;29.72
41690;BME280;27372;42.658;23.256;2023-05-23T11:55:57;93555.72;;;28.22;28.50
41690;BME280;27372;42.658;23.256;2023-05-23T11:58:32;93558.53;;;29.07;28.40
41690;BME280;27372;42.658;23.256;2023-05-23T12:44:17;93495.53;;;30.34;25.77
41690;BME280;27372;42.658;23.256;2023-05-23T12:46:43;93497.00;;;28.97;26.29
41690;BME280;27372;42.658;23.256;2023-05-23T12:49:09;93494.47;;;29.08;25.90
41690;BME280;27372;42.658;23.256;2023-05-23T12:51:50;93496.53;;;29.38;27.39
41690;BME280;27372;42.658;23.256;2023-05-23T12:54:27;93485.28;;;29.63;26.35
41690;BME280;27372;42.658;23.256;2023-05-23T12:57:29;93486.81;;;29.60;26.55
41690;BME280;27372;42.658;23.256;2023-05-23T13:00:30;93480.72;;;30.24;26.66
41690;BME280;27372;42.658;23.256;2023-05-23T13:06:38;93480.59;;;29.86;25.67
41690;BME280;27372;42.658;23.256;2023-05-23T13:09:03;93487.81;;;28.39;26.65
41690;BME280;27372;42.658;23.256;2023-05-23T13:11:38;93479.75;;;28.82;26.46
41690;BME280;27372;42.658;23.256;2023-05-23T13:14:03;93474.06;;;29.87;25.15
41690;BME280;27372;42.658;23.256;2023-05-23T13:28:10;93474.06;;;30.86;23.10
41690;BME280;27372;42.658;23.256;2023-05-23T13:37:35;93489.81;;;29.82;23.53
41690;BME280;27372;42.658;23.256;2023-05-23T13:40:34;93487.69;;;29.41;23.74
41690;BME280;27372;42.658;23.256;2023-05-23T13:43:30;93485.94;;;29.06;24.49
41690;BME280;27372;42.658;23.256;2023-05-23T13:49:00;93470.47;;;30.41;23.90
41690;BME280;27372;42.658;23.256;2023-05-23T13:55:24;93487.59;;;29.61;26.39
41690;BME280;27372;42.658;23.256;2023-05-23T14:00:54;93488.75;;;28.47;26.92
41690;BME280;27372;42.658;23.256;2023-05-23T14:11:38;93475.84;;;29.03;24.58
41690;BME280;27372;42.658;23.256;2023-05-23T14:20:39;93473.78;;;30.27;24.35
41690;BME280;27372;42.658;23.256;2023-05-23T14:23:16;93471.72;;;30.85;23.49
41690;BME280;27372;42.658;23.256;2023-05-23T14:25:42;93475.44;;;30.35;24.08
41690;BME280;27372;42.658;23.256;2023-05-23T14:28:12;93478.47;;;29.22;25.27
41690;BME280;27372;42.658;23.256;2023-05-23T14:30:37;93482.00;;;28.37;27.11
41690;BME280;27372;42.658;23.256;2023-05-23T14:33:03;93484.34;;;27.83;30.32
41690;BME280;27372;42.658;23.256;2023-05-23T14:35:28;93481.06;;;28.10;32.19
41690;BME280;27372;42.658;23.256;2023-05-23T14:37:53;93481.22;;;28.36;32.69
41690;BME280;27372;42.658;23.256;2023-05-23T14:40:19;93481.97;;;28.57;32.45
41690;BME280;27372;42.658;23.256;2023-05-23T14:42:44;93481.25;;;29.03;32.15
41690;BME280;27372;42.658;23.256;2023-05-23T14:45:10;93475.94;;;29.56;30.78
41690;BME280;27372;42.658;23.256;2023-05-23T14:47:36;93479.03;;;29.08;30.54
41690;BME280;27372;42.658;23.256;2023-05-23T14:50:02;93477.94;;;29.90;28.92
41690;BME280;27372;42.658;23.256;2023-05-23T14:52:27;93481.38;;;30.82;27.61
41690;BME280;27372;42.658;23.256;2023-05-23T14:54:53;93481.34;;;30.78;27.75
41690;BME280;27372;42.658;23.256;2023-05-23T14:57:18;93475.53;;;30.12;28.07
41690;BME280;27372;42.658;23.256;2023-05-23T14:59:44;93471.38;;;29.91;27.08
41690;BME280;27372;42.658;23.256;2023-05-23T15:02:10;93465.84;;;29.53;27.56
41690;BME280;27372;42.658;23.256;2023-05-23T15:04:39;93460.50;;;30.14;28.36
41690;BME280;27372;42.658;23.256;2023-05-23T15:07:05;93464.44;;;30.55;27.50
41690;BME280;27372;42.658;23.256;2023-05-23T15:09:30;93457.53;;;30.57;27.40
41690;BME280;27372;42.658;23.256;2023-05-23T15:11:56;93466.97;;;30.74;27.37
41690;BME280;27372;42.658;23.256;2023-05-23T15:14:21;93463.94;;;30.79;27.19
41690;BME280;27372;42.658;23.256;2023-05-23T15:16:53;93455.88;;;31.32;26.67
41690;BME280;27372;42.658;23.256;2023-05-23T15:19:18;93450.97;;;31.52;25.62
41690;BME280;27372;42.658;23.256;2023-05-23T15:21:46;93459.25;;;31.18;26.01
41690;BME280;27372;42.658;23.256;2023-05-23T15:24:21;93456.06;;;31.08;26.06
41690;BME280;27372;42.658;23.256;2023-05-23T15:26:46;93451.63;;;31.34;26.86
41690;BME280;27372;42.658;23.256;2023-05-23T15:29:12;93450.59;;;30.60;27.72
41690;BME280;27372;42.658;23.256;2023-05-23T15:31:40;93458.81;;;30.71;28.08
41690;BME280;27372;42.658;23.256;2023-05-23T15:34:05;93446.75;;;30.30;28.34
41690;BME280;27372;42.658;23.256;2023-05-23T15:36:31;93449.66;;;30.14;27.65
41690;BME280;27372;42.658;23.256;2023-05-23T15:38:56;93449.97;;;30.05;27.46
41690;BME280;27372;42.658;23.256;2023-05-23T15:41:22;93458.81;;;28.98;28.44
41690;BME280;27372;42.658;23.256;2023-05-23T15:43:47;93455.59;;;29.66;28.00
41690;BME280;27372;42.658;23.256;2023-05-23T15:46:12;93448.22;;;29.13;28.54
41690;BME280;27372;42.658;23.256;2023-05-23T15:48:38;93452.66;;;29.48;27.67
41690;BME280;27372;42.658;23.256;2023-05-23T15:51:03;93446.03;;;29.46;28.07
41690;BME280;27372;42.658;23.256;2023-05-23T15:53:30;93450.47;;;29.57;28.33
41690;BME280;27372;42.658;23.256;2023-05-23T15:55:58;93451.91;;;29.51;28.79
41690;BME280;27372;42.658;23.256;2023-05-23T15:58:23;93449.63;;;29.80;28.07
41690;BME280;27372;42.658;23.256;2023-05-23T16:00:49;93442.00;;;29.89;28.62
41690;BME280;27372;42.658;23.256;2023-05-23T16:03:17;93455.91;;;28.45;30.00
41690;BME280;27372;42.658;23.256;2023-05-23T16:05:45;93448.59;;;29.11;29.25
41690;BME280;27372;42.658;23.256;2023-05-23T16:08:11;93452.00;;;29.08;28.88
41690;BME280;27372;42.658;23.256;2023-05-23T16:10:36;93455.72;;;28.54;30.26
41690;BME280;27372;42.658;23.256;2023-05-23T16:13:02;93462.59;;;28.31;30.26
41690;BME280;27372;42.658;23.256;2023-05-23T16:15:28;93453.34;;;27.93;31.53
41690;BME280;27372;42.658;23.256;2023-05-23T16:18:00;93453.41;;;26.93;32.71
41690;BME280;27372;42.658;23.256;2023-05-23T16:20:28;93463.41;;;26.48;33.80
41690;BME280;27372;42.658;23.256;2023-05-23T16:22:54;93449.59;;;26.94;33.08
41690;BME280;27372;42.658;23.256;2023-05-23T16:25:22;93449.75;;;27.18;32.61